Terminal Aerodrome Forecast
Issued by NWS

Home | Current Version | Previous Version | Text Only | Print | Product List | Glossary On
Versions: 1 2 3 4 5 6 7 8 9 10 11 12 13 14 15 16 17 18 19 20 21 22 23 24
000
FTUS41 KRNK 061128
TAFLWB
TAF
KLWB 061128Z 0612/0712 01003KT P6SM BKN100
     FM061300 VRB03KT P6SM SCT060
     FM061700 08004KT P6SM VCTS BKN050CB
     FM070000 VRB03KT P6SM -SHRA BKN045 BKN080
     FM070600 00000KT 5SM BR BKN100
     FM070900 03003KT 1/4SM FG BKN001=

USA.gov is the U.S. government's official web portal to all federal, state and local government web resources and services.